createdAt,value
2019-04-30T00:01:18.447Z,11.45
2019-04-30T00:03:59.373Z,11.40
2019-04-30T00:06:37.700Z,11.39
2019-04-30T00:09:09.850Z,11.35
2019-04-30T00:11:46.061Z,11.35
2019-04-30T00:14:19.616Z,11.34
2019-04-30T00:16:52.423Z,11.30
2019-04-30T00:19:25.876Z,11.26
2019-04-30T00:22:00.407Z,11.21
2019-04-30T00:24:35.452Z,11.18
2019-04-30T00:27:08.591Z,11.17
2019-04-30T00:29:41.482Z,11.15
2019-04-30T00:32:15.972Z,11.14
2019-04-30T00:34:48.980Z,11.10
2019-04-30T00:37:22.940Z,11.08
2019-04-30T00:39:55.853Z,11.07
2019-04-30T00:42:29.780Z,11.05
2019-04-30T00:45:06.702Z,10.98
2019-04-30T00:47:39.455Z,10.90
2019-04-30T00:50:14.848Z,10.81
2019-04-30T00:52:48.108Z,10.78
2019-04-30T00:55:21.043Z,10.72
2019-04-30T00:57:55.506Z,10.66
2019-04-30T01:00:29.792Z,10.64
2019-04-30T01:03:09.351Z,10.62
2019-04-30T01:05:44.493Z,10.57
2019-04-30T01:08:21.180Z,10.54
2019-04-30T01:10:51.649Z,10.57
2019-04-30T01:13:24.472Z,10.56
2019-04-30T01:15:58.809Z,10.54
2019-04-30T01:18:32.188Z,10.52
2019-04-30T01:21:07.848Z,10.51
2019-04-30T01:23:43.098Z,10.47
2019-04-30T01:26:14.632Z,10.47
2019-04-30T01:28:49.390Z,10.49
2019-04-30T01:31:22.517Z,10.45
2019-04-30T01:33:55.321Z,10.44
2019-04-30T01:36:29.381Z,10.39
2019-04-30T01:39:02.422Z,10.37
2019-04-30T01:41:38.662Z,10.31
2019-04-30T01:44:12.129Z,10.31
2019-04-30T01:46:48.271Z,10.29
2019-04-30T01:49:20.386Z,10.23
2019-04-30T01:51:57.331Z,10.17
2019-04-30T01:54:29.212Z,10.14
2019-04-30T01:57:19.913Z,10.15
2019-04-30T02:00:20.349Z,10.14
2019-04-30T02:02:53.337Z,10.09
2019-04-30T02:05:26.120Z,10.08
2019-04-30T02:07:59.064Z,10.10
2019-04-30T02:10:31.989Z,10.07
2019-04-30T02:13:04.914Z,9.99
2019-04-30T02:15:39.031Z,9.96
2019-04-30T02:18:12.210Z,9.94
2019-04-30T02:20:45.122Z,9.90
2019-04-30T02:23:19.599Z,9.89
2019-04-30T02:25:52.974Z,9.86
2019-04-30T02:28:25.806Z,9.83
2019-04-30T02:31:00.417Z,9.79
2019-04-30T02:33:35.150Z,9.69
2019-04-30T02:36:29.832Z,9.69
2019-04-30T02:39:02.727Z,9.69
2019-04-30T02:41:40.870Z,9.61
2019-04-30T02:44:14.640Z,9.58
2019-04-30T02:46:50.495Z,9.54
2019-04-30T02:49:24.237Z,9.52
2019-04-30T02:51:59.504Z,9.44
2019-04-30T02:54:34.740Z,9.40
2019-04-30T02:57:14.107Z,9.36
2019-04-30T03:00:13.257Z,9.30
2019-04-30T03:02:46.271Z,9.24
2019-04-30T03:05:20.563Z,9.20
2019-04-30T03:07:53.721Z,9.19
2019-04-30T03:10:26.691Z,9.14
2019-04-30T03:13:00.145Z,9.10
2019-04-30T03:15:33.105Z,9.08
2019-04-30T03:18:24.800Z,9.02
2019-04-30T03:21:03.640Z,8.96
2019-04-30T03:23:38.983Z,8.85
2019-04-30T03:26:12.973Z,8.79
2019-04-30T03:28:45.622Z,8.76
2019-04-30T03:31:22.587Z,8.74
2019-04-30T03:33:53.027Z,8.72
2019-04-30T03:36:25.873Z,8.69
2019-04-30T03:38:59.994Z,8.68
2019-04-30T03:41:34.365Z,8.66
2019-04-30T03:44:18.568Z,8.68
2019-04-30T03:46:41.684Z,8.65
2019-04-30T03:49:14.640Z,8.60
2019-04-30T03:51:49.699Z,8.59
2019-04-30T03:54:22.047Z,8.60
2019-04-30T03:56:56.578Z,8.58
2019-04-30T03:59:30.211Z,8.55
2019-04-30T04:02:20.944Z,8.57
2019-04-30T04:05:10.049Z,8.54
2019-04-30T04:07:53.033Z,8.53
2019-04-30T04:10:43.364Z,8.57
2019-04-30T04:13:16.257Z,8.55
2019-04-30T04:15:49.995Z,8.63
2019-04-30T04:18:23.172Z,8.67
2019-04-30T04:21:08.805Z,8.76
2019-04-30T04:23:32.832Z,8.89
2019-04-30T04:26:05.114Z,8.98
2019-04-30T04:28:43.119Z,9.12
2019-04-30T04:31:12.651Z,9.26
2019-04-30T04:33:45.489Z,9.26
2019-04-30T04:36:20.011Z,9.33
2019-04-30T04:38:53.214Z,9.38
2019-04-30T04:41:26.127Z,9.37
2019-04-30T04:44:00.344Z,9.34
2019-04-30T04:46:33.358Z,9.37
2019-04-30T04:49:06.216Z,9.40
2019-04-30T04:51:42.208Z,9.47
2019-04-30T04:54:13.605Z,9.53
2019-04-30T04:56:46.515Z,9.52
2019-04-30T04:59:20.154Z,9.52
2019-04-30T05:01:53.199Z,9.53
2019-04-30T05:04:26.132Z,9.59
2019-04-30T05:07:00.086Z,9.60
2019-04-30T05:09:33.153Z,9.66
2019-04-30T05:12:06.088Z,9.64
2019-04-30T05:14:38.982Z,9.66
2019-04-30T05:17:11.791Z,9.64
2019-04-30T05:19:44.749Z,9.66
2019-04-30T05:22:19.025Z,9.72
2019-04-30T05:24:52.341Z,9.71
2019-04-30T05:27:25.370Z,9.76
2019-04-30T05:29:59.582Z,9.85
2019-04-30T05:32:32.571Z,9.93
2019-04-30T05:35:06.057Z,10.02
2019-04-30T05:37:39.054Z,10.11
2019-04-30T05:40:12.901Z,10.20
2019-04-30T05:42:46.099Z,10.25
2019-04-30T05:45:19.384Z,10.37
2019-04-30T05:47:52.446Z,10.45
2019-04-30T05:50:25.388Z,10.56
2019-04-30T05:52:59.211Z,10.68
2019-04-30T05:55:33.743Z,10.80
2019-04-30T05:58:09.182Z,10.97
2019-04-30T06:00:42.792Z,11.03
2019-04-30T06:04:33.650Z,11.23
2019-04-30T06:07:39.644Z,11.48
2019-04-30T06:10:59.767Z,11.91
2019-04-30T06:13:50.575Z,12.18
2019-04-30T06:16:25.700Z,12.27
2019-04-30T06:18:58.726Z,12.33
2019-04-30T06:21:32.006Z,12.46
2019-04-30T06:24:04.810Z,12.58
2019-04-30T06:26:39.394Z,12.64
2019-04-30T06:29:18.943Z,12.70
2019-04-30T06:31:51.155Z,12.82
2019-04-30T06:34:25.270Z,12.92
2019-04-30T06:36:59.582Z,13.12
2019-04-30T06:39:35.937Z,13.39
2019-04-30T06:42:12.783Z,13.56
2019-04-30T06:44:44.341Z,13.65
2019-04-30T06:47:32.350Z,14.00
2019-04-30T06:49:56.465Z,14.27
2019-04-30T06:52:35.309Z,14.55
2019-04-30T06:55:33.683Z,14.84
2019-04-30T06:58:16.839Z,14.93
2019-04-30T07:01:09.505Z,14.96
2019-04-30T07:04:23.229Z,15.12
2019-04-30T07:07:18.298Z,15.11
2019-04-30T07:10:53.102Z,15.47
2019-04-30T07:13:36.823Z,15.66
2019-04-30T07:25:35.867Z,16.31
2019-04-30T07:28:14.655Z,16.75
2019-04-30T07:31:11.625Z,16.85
2019-04-30T07:33:50.658Z,17.03
2019-04-30T07:39:14.877Z,17.21
2019-04-30T07:42:38.214Z,17.25
2019-04-30T07:46:20.602Z,17.51
2019-04-30T07:49:56.521Z,17.86
2019-04-30T07:53:18.692Z,17.99
2019-04-30T07:57:36.186Z,18.12
2019-04-30T08:00:35.676Z,18.23
2019-04-30T08:09:38.370Z,17.22
2019-04-30T09:02:15.974Z,20.40
2019-04-30T09:05:55.047Z,20.61
2019-04-30T09:30:13.211Z,21.17
2019-04-30T09:34:20.735Z,21.18
2019-04-30T09:41:13.116Z,21.16
2019-04-30T09:54:21.982Z,21.56
2019-04-30T10:00:39.350Z,21.38
2019-04-30T10:06:39.834Z,21.34
2019-04-30T10:09:50.636Z,21.54
2019-04-30T10:13:18.421Z,21.62
2019-04-30T10:17:57.623Z,21.69
2019-04-30T10:21:23.696Z,21.68
2019-04-30T10:23:41.504Z,21.61
2019-04-30T10:26:48.404Z,21.59
2019-04-30T10:30:03.226Z,21.81
2019-04-30T10:32:40.920Z,22.10
2019-04-30T10:46:59.636Z,22.21
2019-04-30T10:50:06.873Z,22.29
2019-04-30T11:10:45.668Z,22.41
2019-04-30T11:20:47.057Z,23.11
2019-04-30T11:27:37.318Z,22.83
2019-04-30T11:37:58.407Z,22.93
2019-04-30T11:40:49.389Z,22.71
2019-04-30T11:44:09.297Z,22.33
2019-04-30T11:47:11.807Z,22.67
2019-04-30T11:50:04.299Z,23.03
2019-04-30T11:56:58.818Z,22.69
2019-04-30T12:08:10.982Z,23.10
2019-04-30T12:25:12.074Z,22.82
2019-04-30T12:28:36.947Z,22.61
2019-04-30T12:32:11.095Z,22.70
2019-04-30T12:35:10.050Z,22.86
2019-04-30T12:37:52.089Z,22.91
2019-04-30T12:40:32.397Z,23.09
2019-04-30T12:44:08.693Z,22.63
2019-04-30T12:46:50.690Z,22.65
2019-04-30T12:49:56.207Z,22.82
2019-04-30T12:52:43.648Z,22.11
2019-04-30T12:56:00.137Z,21.88
2019-04-30T12:58:58.029Z,21.45
2019-04-30T13:02:09.005Z,21.84
2019-04-30T13:05:04.051Z,22.17
2019-04-30T13:08:13.052Z,21.70
2019-04-30T13:11:30.829Z,21.50
2019-04-30T13:14:10.621Z,21.57
2019-04-30T13:17:00.189Z,21.20
2019-04-30T13:19:41.071Z,21.37
2019-04-30T13:22:21.101Z,21.60
2019-04-30T13:25:03.083Z,21.59
2019-04-30T13:28:00.499Z,21.54
2019-04-30T13:30:32.604Z,21.69
2019-04-30T13:33:54.676Z,21.66
2019-04-30T13:36:41.137Z,21.60
2019-04-30T13:39:29.261Z,21.63
2019-04-30T13:42:29.507Z,21.47
2019-04-30T13:45:08.949Z,21.48
2019-04-30T13:48:10.672Z,21.24
2019-04-30T13:50:57.326Z,21.11
2019-04-30T13:54:22.373Z,21.13
2019-04-30T13:57:34.503Z,21.19
2019-04-30T14:00:41.628Z,21.14
2019-04-30T14:06:29.759Z,21.12
2019-04-30T14:09:42.751Z,21.15
2019-04-30T14:16:35.305Z,20.98
2019-04-30T14:35:35.063Z,21.05
2019-04-30T14:38:08.990Z,20.93
2019-04-30T14:41:01.003Z,20.64
2019-04-30T14:43:56.022Z,20.62
2019-04-30T14:47:12.380Z,20.52
2019-04-30T14:50:18.587Z,20.64
2019-04-30T14:53:30.611Z,20.62
2019-04-30T14:57:10.845Z,20.62
2019-04-30T14:59:39.017Z,20.76
2019-04-30T15:06:06.408Z,20.63
2019-04-30T15:08:55.732Z,20.50
2019-04-30T15:11:46.389Z,20.57
2019-04-30T15:14:41.018Z,20.56
2019-04-30T15:17:39.221Z,20.56
2019-04-30T15:20:14.530Z,20.56
2019-04-30T15:22:58.720Z,20.48
2019-04-30T15:25:38.760Z,20.44
2019-04-30T15:28:14.907Z,20.40
2019-04-30T15:30:58.777Z,20.42
2019-04-30T15:34:13.206Z,20.41
2019-04-30T15:36:59.018Z,20.54
2019-04-30T15:39:48.986Z,20.45
2019-04-30T15:42:55.089Z,20.35
2019-04-30T15:45:39.661Z,20.36
2019-04-30T15:48:40.795Z,20.33
2019-04-30T15:51:17.962Z,20.35
2019-04-30T15:53:52.648Z,20.43
2019-04-30T15:56:35.361Z,20.29
2019-04-30T15:59:28.860Z,20.22
2019-04-30T16:02:12.872Z,20.28
2019-04-30T16:05:11.863Z,20.27
2019-04-30T16:08:09.588Z,20.15
2019-04-30T16:11:00.470Z,20.11
2019-04-30T16:13:39.536Z,20.06
2019-04-30T16:16:13.298Z,20.08
2019-04-30T16:18:50.215Z,20.03
2019-04-30T16:21:23.771Z,20.05
2019-04-30T16:24:05.781Z,20.08
2019-04-30T16:26:49.930Z,20.01
2019-04-30T16:29:30.997Z,19.95
2019-04-30T16:32:04.781Z,19.91
2019-04-30T16:34:38.864Z,19.83
2019-04-30T16:37:19.996Z,19.79
2019-04-30T16:40:21.962Z,19.76
2019-04-30T16:42:58.209Z,19.76
2019-04-30T16:45:41.559Z,19.72
2019-04-30T16:48:14.904Z,19.65
2019-04-30T16:50:51.132Z,19.59
2019-04-30T16:53:25.567Z,19.54
2019-04-30T16:55:58.687Z,19.50
2019-04-30T16:58:50.413Z,19.43
2019-04-30T17:01:23.678Z,19.44
2019-04-30T17:05:11.175Z,19.34
2019-04-30T17:07:50.623Z,19.28
2019-04-30T17:11:01.359Z,19.24
2019-04-30T17:13:51.426Z,19.18
2019-04-30T17:16:26.651Z,19.11
2019-04-30T17:19:04.625Z,19.04
2019-04-30T17:21:42.678Z,18.94
2019-04-30T17:24:21.882Z,18.87
2019-04-30T17:27:19.256Z,18.79
2019-04-30T17:29:45.819Z,18.72
2019-04-30T17:32:19.089Z,18.66
2019-04-30T17:34:55.422Z,18.63
2019-04-30T17:37:31.547Z,18.58
2019-04-30T17:40:14.022Z,18.54
2019-04-30T17:42:47.533Z,18.49
2019-04-30T17:45:23.686Z,18.40
2019-04-30T17:47:58.571Z,18.32
2019-04-30T17:50:32.352Z,18.23
2019-04-30T17:53:09.076Z,18.16
2019-04-30T17:55:44.960Z,18.07
2019-04-30T17:58:20.688Z,17.96
2019-04-30T18:00:56.505Z,17.93
2019-04-30T18:03:30.121Z,17.83
2019-04-30T18:06:09.025Z,17.75
2019-04-30T18:08:43.899Z,17.64
2019-04-30T18:11:20.080Z,17.58
2019-04-30T18:13:53.738Z,17.54
2019-04-30T18:16:29.950Z,17.46
2019-04-30T18:19:10.047Z,17.38
2019-04-30T18:21:51.086Z,17.33
2019-04-30T18:24:46.298Z,17.21
2019-04-30T18:27:29.646Z,17.12
2019-04-30T18:30:12.993Z,17.05
2019-04-30T18:34:09.397Z,16.99
2019-04-30T18:37:21.401Z,16.96
2019-04-30T18:47:37.513Z,16.45
2019-04-30T18:50:29.815Z,16.30
2019-04-30T18:53:28.441Z,16.17
2019-04-30T18:56:19.150Z,16.05
2019-04-30T18:59:15.009Z,16.07
2019-04-30T19:02:19.146Z,16.07
2019-04-30T19:04:55.113Z,16.04
2019-04-30T19:07:37.022Z,16.00
2019-04-30T19:11:00.514Z,15.93
2019-04-30T19:14:24.602Z,15.84
2019-04-30T19:18:23.438Z,15.63
2019-04-30T19:24:56.084Z,15.35
2019-04-30T19:27:22.526Z,15.19
2019-04-30T19:29:59.511Z,15.01
2019-04-30T19:32:39.081Z,14.91
2019-04-30T19:35:15.858Z,14.80
2019-04-30T19:37:52.000Z,14.78
2019-04-30T19:40:28.640Z,14.71
2019-04-30T19:43:01.870Z,14.70
2019-04-30T19:45:36.805Z,14.68
2019-04-30T19:48:10.084Z,14.58
2019-04-30T19:50:43.184Z,14.48
2019-04-30T19:53:19.936Z,14.47
2019-04-30T19:55:51.955Z,14.41
2019-04-30T19:58:44.878Z,14.28
2019-04-30T20:01:01.709Z,14.18
2019-04-30T20:03:36.409Z,14.05
2019-04-30T20:06:09.939Z,14.01
2019-04-30T20:08:45.900Z,13.89
2019-04-30T20:11:18.912Z,13.77
2019-04-30T20:13:54.633Z,13.72
2019-04-30T20:16:27.723Z,13.68
2019-04-30T20:19:03.859Z,13.67
2019-04-30T20:21:48.200Z,13.61
2019-04-30T20:24:14.778Z,13.56
2019-04-30T20:26:50.221Z,13.53
2019-04-30T20:29:22.901Z,13.48
2019-04-30T20:31:56.015Z,13.44
2019-04-30T20:34:29.404Z,13.34
2019-04-30T20:37:02.681Z,13.27
2019-04-30T20:40:00.539Z,13.24
2019-04-30T20:42:33.847Z,13.21
2019-04-30T20:45:09.071Z,13.18
2019-04-30T20:47:42.822Z,13.11
2019-04-30T20:50:16.327Z,13.10
2019-04-30T20:52:49.601Z,13.09
2019-04-30T20:55:24.256Z,13.02
2019-04-30T20:57:59.348Z,12.94
2019-04-30T21:00:31.977Z,12.94
2019-04-30T21:03:05.272Z,12.93
2019-04-30T21:05:38.637Z,12.90
2019-04-30T21:08:11.806Z,12.88
2019-04-30T21:10:45.152Z,12.85
2019-04-30T21:13:19.360Z,12.82
2019-04-30T21:15:55.327Z,12.77
2019-04-30T21:18:30.528Z,12.69
2019-04-30T21:21:03.165Z,12.66
2019-04-30T21:23:36.457Z,12.65
2019-04-30T21:26:09.468Z,12.58
2019-04-30T21:28:43.307Z,12.49
2019-04-30T21:31:35.650Z,12.48
2019-04-30T21:34:15.545Z,12.44
2019-04-30T21:36:49.604Z,12.38
2019-04-30T21:39:22.795Z,12.35
2019-04-30T21:41:55.992Z,12.33
2019-04-30T21:44:29.375Z,12.26
2019-04-30T21:47:02.711Z,12.19
2019-04-30T21:49:36.288Z,12.16
2019-04-30T21:52:13.590Z,12.12
2019-04-30T21:54:48.679Z,12.04
2019-04-30T21:57:39.168Z,11.95
2019-04-30T22:00:18.523Z,11.94
2019-04-30T22:02:54.201Z,11.86
2019-04-30T22:05:31.804Z,11.79
2019-04-30T22:08:11.949Z,11.76
2019-04-30T22:10:55.564Z,11.70
2019-04-30T22:13:34.628Z,11.66
2019-04-30T22:16:10.421Z,11.60
2019-04-30T22:18:46.857Z,11.60
2019-04-30T22:21:30.449Z,11.53
2019-04-30T22:24:06.105Z,11.50
2019-04-30T22:26:41.029Z,11.53
2019-04-30T22:29:38.426Z,11.49
2019-04-30T22:32:00.447Z,11.47
2019-04-30T22:34:34.296Z,11.43
2019-04-30T22:37:08.875Z,11.41
2019-04-30T22:39:51.847Z,11.39
2019-04-30T22:42:42.331Z,11.39
2019-04-30T22:45:26.679Z,11.29
2019-04-30T22:48:00.139Z,11.24
2019-04-30T22:50:34.526Z,11.24
2019-04-30T22:53:07.993Z,11.21
2019-04-30T22:55:41.308Z,11.20
2019-04-30T22:58:15.153Z,11.16
2019-04-30T23:00:48.558Z,11.19
2019-04-30T23:03:26.002Z,11.20
2019-04-30T23:06:03.653Z,11.18
2019-04-30T23:08:37.268Z,11.22
2019-04-30T23:11:11.167Z,11.19
2019-04-30T23:13:47.994Z,11.18
2019-04-30T23:16:24.096Z,11.15
2019-04-30T23:19:02.675Z,11.18
2019-04-30T23:24:54.212Z,11.12
2019-04-30T23:27:29.013Z,11.13
2019-04-30T23:30:04.857Z,11.16
2019-04-30T23:32:54.213Z,11.17
2019-04-30T23:35:31.077Z,11.17
2019-04-30T23:38:17.506Z,11.18
2019-04-30T23:40:56.558Z,11.14
2019-04-30T23:43:35.725Z,11.16
2019-04-30T23:46:09.189Z,11.18
2019-04-30T23:48:48.518Z,11.17
2019-04-30T23:54:42.239Z,11.21
2019-04-30T23:57:16.534Z,11.17
2019-04-30T23:59:52.996Z,11.14
